Time;durP1;ratioP1;P1;durP2;ratioP2;P2;SDS_P1;SDS_P2;PMS_P1;PMS_P2;Temp;Humidity;BMP_temperature;BMP_pressure;BME280_temperature;BME280_humidity;BME280_pressure;Samples;Min_cycle;Max_cycle;Signal;HPM_P1;HPM_P2
2024/03/09 00:01:07;;;;;;;;;;;;;;;23.07;45.10;93002.19;5084067;28;9454;-61
2024/03/09 00:03:33;;;;;;;;;;;;;;;23.08;45.12;92992.69;5081471;28;8710;-61
2024/03/09 00:06:06;;;;;;;;;;;;;;;23.08;44.60;92992.69;5084685;28;7026;-65
2024/03/09 00:08:34;;;;;;;;;;;;;;;23.06;44.89;92992.47;5091370;28;8727;-65
2024/03/09 00:11:01;;;;;;;;;;;;;;;23.08;44.85;93003.66;5098693;28;9003;-66
2024/03/09 00:13:27;;;;;;;;;;;;;;;23.07;44.67;93006.94;5091845;28;9055;-65
2024/03/09 00:15:54;;;;;;;;;;;;;;;23.05;44.82;92999.22;5091698;28;9080;-60
2024/03/09 00:18:23;;;;;;;;;;;;;;;23.03;44.79;92999.00;5080455;28;9049;-60
2024/03/09 00:20:49;;;;;;;;;;;;;;;23.05;44.89;92996.47;5100427;28;9687;-60
2024/03/09 00:23:15;;;;;;;;;;;;;;;23.06;44.55;92997.22;5079801;28;9074;-60
2024/03/09 00:25:42;;;;;;;;;;;;;;;23.01;44.77;92989.84;5097303;28;7128;-66
2024/03/09 00:28:08;;;;;;;;;;;;;;;23.05;44.98;92995.75;5084065;28;6878;-59
2024/03/09 00:30:36;;;;;;;;;;;;;;;23.01;44.78;93004.28;5079352;28;9030;-59
2024/03/09 00:33:07;;;;;;;;;;;;;;;23.04;44.73;93005.22;5101658;28;7042;-59
2024/03/09 00:35:41;;;;;;;;;;;;;;;23.04;44.49;92999.75;5082836;28;9014;-59
2024/03/09 00:38:09;;;;;;;;;;;;;;;23.04;44.46;93003.25;5096318;28;9053;-59
2024/03/09 00:41:04;;;;;;;;;;;;;;;23.04;44.89;93011.47;5087427;28;9124;-59
2024/03/09 00:43:47;;;;;;;;;;;;;;;23.04;44.60;92999.75;5093196;28;7651;-59
2024/03/09 00:46:24;;;;;;;;;;;;;;;23.03;44.60;92998.28;5083749;28;8651;-59
2024/03/09 00:48:52;;;;;;;;;;;;;;;23.01;45.00;92998.06;5086364;28;7342;-59
2024/03/09 00:51:22;;;;;;;;;;;;;;;23.00;43.88;92983.63;5077045;28;9382;-59
2024/03/09 00:53:57;;;;;;;;;;;;;;;23.00;44.45;92977.41;5095381;28;7110;-59
2024/03/09 00:56:23;;;;;;;;;;;;;;;22.96;44.53;92988.69;5088709;28;9357;-59
2024/03/09 00:58:49;;;;;;;;;;;;;;;22.99;44.36;92989.63;5097691;28;9091;-59
2024/03/09 01:01:15;;;;;;;;;;;;;;;22.98;44.79;92980.66;5095360;28;9087;-59
2024/03/09 01:03:43;;;;;;;;;;;;;;;22.97;44.79;92973.69;5075323;28;9251;-59
2024/03/09 01:06:23;;;;;;;;;;;;;;;22.98;44.31;92980.66;5091604;28;9566;-59
2024/03/09 01:08:51;;;;;;;;;;;;;;;22.97;44.58;92979.19;5087347;28;9663;-59
2024/03/09 01:11:45;;;;;;;;;;;;;;;22.97;44.79;92973.69;5079809;28;9480;-59
2024/03/09 01:14:11;;;;;;;;;;;;;;;22.98;44.71;92956.00;5052586;28;9102;-59
2024/03/09 01:16:37;;;;;;;;;;;;;;;22.95;44.65;92946.06;5064047;28;8823;-59
2024/03/09 01:19:05;;;;;;;;;;;;;;;22.96;44.77;92933.09;5053575;28;9151;-59
2024/03/09 01:21:33;;;;;;;;;;;;;;;22.94;44.80;92932.91;5072524;28;7244;-59
2024/03/09 01:24:08;;;;;;;;;;;;;;;22.96;44.52;92941.34;5040785;28;8869;-59
2024/03/09 01:26:44;;;;;;;;;;;;;;;22.96;44.61;92939.34;5053835;28;7022;-59
2024/03/09 01:29:23;;;;;;;;;;;;;;;22.92;44.44;92927.22;5055853;28;9029;-59
2024/03/09 01:31:52;;;;;;;;;;;;;;;22.97;44.52;92923.59;5067294;28;9411;-59
2024/03/09 01:34:30;;;;;;;;;;;;;;;22.97;44.76;92921.59;5071788;28;8644;-59
2024/03/09 01:36:57;;;;;;;;;;;;;;;22.96;44.48;92928.38;5052609;28;9379;-66
2024/03/09 01:39:25;;;;;;;;;;;;;;;22.96;44.56;92924.88;5053890;28;8966;-67
2024/03/09 01:42:10;;;;;;;;;;;;;;;22.92;44.46;92914.22;5064651;28;7086;-67
2024/03/09 01:44:42;;;;;;;;;;;;;;;22.95;44.74;92921.41;5046135;28;9245;-66
2024/03/09 01:47:12;;;;;;;;;;;;;;;22.96;44.23;92906.44;5047200;28;7411;-66
2024/03/09 01:49:39;;;;;;;;;;;;;;;22.92;44.66;92899.78;5047567;28;9755;-66
2024/03/09 01:52:07;;;;;;;;;;;;;;;22.90;44.50;92897.56;5077285;28;8252;-65
2024/03/09 01:54:39;;;;;;;;;;;;;;;22.96;43.85;92900.22;5094948;28;8623;-65
2024/03/09 01:57:05;;;;;;;;;;;;;;;22.93;44.38;92882.81;5091476;28;8712;-65
2024/03/09 01:59:32;;;;;;;;;;;;;;;22.95;44.49;92899.47;5103266;28;10014;-65
2024/03/09 02:01:58;;;;;;;;;;;;;;;22.94;44.58;92883.56;5087546;28;7083;-65
2024/03/09 02:04:30;;;;;;;;;;;;;;;22.96;44.25;92889.97;5078826;28;8933;-65
2024/03/09 02:06:58;;;;;;;;;;;;;;;22.95;44.58;92893.97;5075364;28;9420;-65
2024/03/09 02:09:35;;;;;;;;;;;;;;;22.93;44.60;92880.06;5093279;28;9399;-66
2024/03/09 02:12:12;;;;;;;;;;;;;;;22.92;45.00;92881.31;5110822;28;8263;-66
2024/03/09 02:14:54;;;;;;;;;;;;;;;22.92;44.58;92864.88;5104639;28;9018;-66
2024/03/09 02:17:28;;;;;;;;;;;;;;;22.93;44.17;92868.34;5093992;28;9433;-66
2024/03/09 02:19:56;;;;;;;;;;;;;;;22.91;44.06;92871.63;5077128;28;9696;-66
2024/03/09 02:22:25;;;;;;;;;;;;;;;22.91;44.58;92888.09;5082568;28;7030;-68
2024/03/09 02:24:58;;;;;;;;;;;;;;;22.92;44.55;92881.31;5077844;28;7189;-64
2024/03/09 02:27:53;;;;;;;;;;;;;;;22.91;44.61;92882.59;5074264;28;9406;-64
2024/03/09 02:30:37;;;;;;;;;;;;;;;22.92;44.31;92862.13;5056299;28;8740;-64
2024/03/09 02:33:08;;;;;;;;;;;;;;;22.91;44.41;92854.44;5055103;28;9069;-64
2024/03/09 02:35:54;;;;;;;;;;;;;;;22.91;44.33;92865.41;5071770;28;8931;-64
2024/03/09 02:38:20;;;;;;;;;;;;;;;22.87;44.46;92854.03;5068692;28;8721;-64
2024/03/09 02:40:56;;;;;;;;;;;;;;;22.90;44.53;92858.47;5037643;28;8898;-64
2024/03/09 02:43:25;;;;;;;;;;;;;;;22.90;44.44;92859.19;5070948;28;8697;-64
2024/03/09 02:46:01;;;;;;;;;;;;;;;22.94;44.13;92856.88;5070944;28;7356;-58
2024/03/09 02:48:29;;;;;;;;;;;;;;;22.98;44.76;92860.03;5070894;28;9269;-58
2024/03/09 02:50:57;;;;;;;;;;;;;;;22.98;44.02;92853.81;5071437;28;9248;-58
2024/03/09 02:53:35;;;;;;;;;;;;;;;22.98;44.42;92853.81;5055401;28;8791;-58
2024/03/09 02:56:23;;;;;;;;;;;;;;;22.96;44.20;92848.84;5055116;28;9735;-58
2024/03/09 02:58:49;;;;;;;;;;;;;;;22.95;44.30;92850.13;5055003;28;8144;-58
2024/03/09 03:01:18;;;;;;;;;;;;;;;22.95;44.40;92866.56;5054897;28;9431;-59
2024/03/09 03:03:49;;;;;;;;;;;;;;;22.96;44.30;92835.16;5052546;28;9022;-58
2024/03/09 03:06:23;;;;;;;;;;;;;;;22.95;44.07;92814.47;5069816;28;9029;-58
2024/03/09 03:11:56;;;;;;;;;;;;;;;22.95;44.21;92839.16;5036206;28;8612;-58
2024/03/09 03:14:53;;;;;;;;;;;;;;;22.96;44.09;92846.13;5042698;28;9020;-58
2024/03/09 03:17:23;;;;;;;;;;;;;;;22.96;44.26;92843.38;5009139;28;9085;-58
2024/03/09 03:19:49;;;;;;;;;;;;;;;22.99;44.17;92842.28;4991195;28;9417;-58
2024/03/09 03:22:19;;;;;;;;;;;;;;;22.98;44.48;92831.88;5011177;28;7098;-58
2024/03/09 03:24:45;;;;;;;;;;;;;;;22.98;44.25;92832.63;4992830;28;7246;-58
2024/03/09 03:27:42;;;;;;;;;;;;;;;23.00;44.27;92832.81;4995279;28;8707;-58
2024/03/09 03:30:36;;;;;;;;;;;;;;;23.00;44.36;92827.34;4918075;29;8707;-58
2024/03/09 03:33:03;;;;;;;;;;;;;;;22.98;44.03;92821.66;4918539;29;6933;-58
2024/03/09 03:36:01;;;;;;;;;;;;;;;23.01;44.26;92828.78;4934637;29;9161;-58
2024/03/09 03:38:31;;;;;;;;;;;;;;;23.00;44.28;92837.56;4906861;29;9852;-58
2024/03/09 03:40:58;;;;;;;;;;;;;;;23.01;43.41;92828.78;4899341;29;9025;-58
2024/03/09 03:43:25;;;;;;;;;;;;;;;23.00;43.83;92830.06;4889776;29;6990;-58
2024/03/09 03:45:51;;;;;;;;;;;;;;;23.00;44.29;92821.09;4890051;29;8801;-59
2024/03/09 03:48:19;;;;;;;;;;;;;;;22.99;43.78;92825.84;4889751;29;8959;-58
2024/03/09 03:50:49;;;;;;;;;;;;;;;22.99;44.03;92817.63;4899860;29;9444;-59
2024/03/09 03:53:15;;;;;;;;;;;;;;;22.96;43.90;92807.72;4924778;29;9260;-59
2024/03/09 03:55:42;;;;;;;;;;;;;;;22.98;44.42;92810.69;4925740;29;7163;-61
2024/03/09 03:58:08;;;;;;;;;;;;;;;22.99;43.68;92817.63;4946272;28;7271;-61
2024/03/09 04:00:34;;;;;;;;;;;;;;;22.99;43.65;92801.16;4942074;28;8706;-60
2024/03/09 04:03:00;;;;;;;;;;;;;;;22.99;44.05;92805.91;4938120;28;7084;-61
2024/03/09 04:05:29;;;;;;;;;;;;;;;22.99;44.10;92801.16;4934956;28;9447;-61
2024/03/09 04:08:07;;;;;;;;;;;;;;;22.99;44.11;92797.69;5009122;28;7140;-60
2024/03/09 04:10:33;;;;;;;;;;;;;;;22.97;44.12;92790.00;5014656;28;9097;-61
2024/03/09 04:13:00;;;;;;;;;;;;;;;22.98;44.20;92788.75;5002925;28;8735;-60
2024/03/09 04:15:29;;;;;;;;;;;;;;;22.99;44.13;92803.91;5075671;28;9715;-60
2024/03/09 04:18:02;;;;;;;;;;;;;;;22.98;43.96;92813.41;5112690;28;9798;-61
2024/03/09 04:20:34;;;;;;;;;;;;;;;22.98;44.06;92809.94;5076694;28;9183;-60
2024/03/09 04:23:16;;;;;;;;;;;;;;;22.98;44.18;92799.72;5083965;28;9038;-60
2024/03/09 04:25:46;;;;;;;;;;;;;;;22.97;43.88;92798.22;5078904;28;9872;-60
2024/03/09 04:28:20;;;;;;;;;;;;;;;22.91;44.14;92797.63;5094555;28;9141;-61
2024/03/09 04:30:59;;;;;;;;;;;;;;;22.98;43.82;92810.69;5087809;28;7304;-61
2024/03/09 04:33:28;;;;;;;;;;;;;;;22.96;44.36;92801.50;5085403;28;9426;-60
2024/03/09 04:35:55;;;;;;;;;;;;;;;22.97;44.01;92803.72;5103524;28;7516;-60
2024/03/09 04:38:21;;;;;;;;;;;;;;;22.98;44.07;92799.72;5092408;28;7114;-60
2024/03/09 04:40:49;;;;;;;;;;;;;;;22.97;43.92;92795.47;5092115;28;8739;-61
2024/03/09 04:43:15;;;;;;;;;;;;;;;22.97;43.89;92792.75;5090425;28;7015;-60
2024/03/09 04:45:41;;;;;;;;;;;;;;;23.00;44.16;92799.16;5090122;28;8821;-60
2024/03/09 04:48:13;;;;;;;;;;;;;;;22.97;43.84;92786.50;5085720;28;8685;-60
2024/03/09 04:50:46;;;;;;;;;;;;;;;22.98;43.88;92779.78;5081921;28;8780;-61
2024/03/09 04:53:12;;;;;;;;;;;;;;;22.98;44.07;92775.03;5083005;28;7090;-62
2024/03/09 04:55:44;;;;;;;;;;;;;;;22.97;43.67;92784.50;5074721;28;9456;-62
2024/03/09 04:58:15;;;;;;;;;;;;;;;22.98;43.97;92786.00;5105366;28;7229;-62
2024/03/09 05:00:42;;;;;;;;;;;;;;;22.97;43.63;92770.81;5079431;28;7036;-62
2024/03/09 05:03:07;;;;;;;;;;;;;;;22.97;43.94;92765.31;5078110;28;9092;-62
2024/03/09 05:05:36;;;;;;;;;;;;;;;22.96;43.74;92776.84;5088032;28;7117;-62
2024/03/09 05:08:16;;;;;;;;;;;;;;;22.98;44.12;92771.56;5087194;28;8748;-62
2024/03/09 05:10:45;;;;;;;;;;;;;;;22.98;43.62;92768.81;5096372;28;8950;-61
2024/03/09 05:13:24;;;;;;;;;;;;;;;23.00;44.31;92772.50;5080858;28;7458;-61
2024/03/09 05:15:59;;;;;;;;;;;;;;;22.99;44.26;92764.78;5079404;28;9312;-61
2024/03/09 05:18:31;;;;;;;;;;;;;;;22.97;43.85;92768.06;5082588;28;8189;-61
2024/03/09 05:20:57;;;;;;;;;;;;;;;22.95;44.03;92759.63;5075223;28;8958;-61
2024/03/09 05:23:25;;;;;;;;;;;;;;;22.95;44.22;92761.63;5090507;28;9326;-61
2024/03/09 05:25:52;;;;;;;;;;;;;;;22.93;43.72;92759.44;5080953;28;9072;-61
2024/03/09 05:28:22;;;;;;;;;;;;;;;22.95;43.95;92778.09;5094451;28;7032;-61
2024/03/09 05:31:23;;;;;;;;;;;;;;;22.92;43.97;92779.88;5088772;28;9123;-61
2024/03/09 05:34:03;;;;;;;;;;;;;;;22.95;44.08;92786.31;5090219;28;9172;-62
2024/03/09 05:36:39;;;;;;;;;;;;;;;22.97;44.02;92790.00;5102867;28;7262;-62
2024/03/09 05:39:11;;;;;;;;;;;;;;;22.97;44.02;92779.03;5104878;28;8642;-62
2024/03/09 05:41:45;;;;;;;;;;;;;;;23.00;44.00;92783.47;5111029;28;7296;-62
2024/03/09 05:44:14;;;;;;;;;;;;;;;23.02;43.55;92780.19;5097553;28;7513;-62
2024/03/09 05:46:43;;;;;;;;;;;;;;;22.99;44.10;92790.19;5086105;28;9456;-62
2024/03/09 05:49:12;;;;;;;;;;;;;;;23.00;44.52;92777.25;5083741;28;9083;-62
2024/03/09 05:51:57;;;;;;;;;;;;;;;23.02;43.85;92777.44;5083574;28;9737;-61
2024/03/09 05:54:38;;;;;;;;;;;;;;;23.00;43.84;92763.53;5092189;28;7321;-61
2024/03/09 05:57:06;;;;;;;;;;;;;;;23.05;44.47;92770.91;5084285;28;7150;-63
2024/03/09 05:59:32;;;;;;;;;;;;;;;23.10;43.97;92767.28;5089935;28;9481;-63
2024/03/09 06:02:03;;;;;;;;;;;;;;;23.10;43.95;92768.03;5082995;28;9574;-65
2024/03/09 06:04:32;;;;;;;;;;;;;;;23.05;44.03;92766.13;5098158;28;7021;-65
2024/03/09 06:07:04;;;;;;;;;;;;;;;23.11;44.20;92774.25;5085250;28;7204;-65
2024/03/09 06:09:39;;;;;;;;;;;;;;;23.07;43.70;92773.84;5086894;28;8798;-65
2024/03/09 06:12:15;;;;;;;;;;;;;;;23.06;43.78;92767.63;5092133;28;8591;-65
2024/03/09 06:14:44;;;;;;;;;;;;;;;23.04;44.01;92764.69;5097969;28;9365;-65
2024/03/09 06:17:12;;;;;;;;;;;;;;;23.07;43.99;92769.09;5093749;28;9196;-65
2024/03/09 06:19:40;;;;;;;;;;;;;;;23.07;43.73;92758.13;5077886;28;9163;-65
2024/03/09 06:22:08;;;;;;;;;;;;;;;23.07;44.14;92765.63;5082391;28;9630;-65
2024/03/09 06:24:35;;;;;;;;;;;;;;;23.04;43.84;92758.44;5078258;28;9031;-65
2024/03/09 06:27:33;;;;;;;;;;;;;;;23.01;44.39;92765.00;5097599;27;9940;-65
2024/03/09 06:30:03;;;;;;;;;;;;;;;22.97;43.87;92775.53;5048123;28;9894;-65
2024/03/09 06:32:49;;;;;;;;;;;;;;;23.06;44.04;92778.59;5040310;28;7024;-65
2024/03/09 06:35:19;;;;;;;;;;;;;;;23.04;44.32;92781.13;5052152;28;9455;-65
2024/03/09 06:38:09;;;;;;;;;;;;;;;23.05;44.33;92793.56;5033890;28;9640;-65
2024/03/09 06:40:39;;;;;;;;;;;;;;;23.03;44.35;92781.66;5052143;28;8737;-65
2024/03/09 06:43:17;;;;;;;;;;;;;;;23.03;44.18;92784.41;5035259;28;8729;-65
2024/03/09 06:45:56;;;;;;;;;;;;;;;23.02;44.24;92769.97;5034858;28;7370;-65
2024/03/09 06:48:23;;;;;;;;;;;;;;;23.01;43.97;92775.97;5033967;28;9252;-65
2024/03/09 06:50:53;;;;;;;;;;;;;;;23.02;44.39;92774.69;5029695;28;8954;-65
2024/03/09 06:53:27;;;;;;;;;;;;;;;23.04;44.21;92777.63;5029993;28;7224;-65
2024/03/09 06:55:54;;;;;;;;;;;;;;;23.01;44.51;92787.66;5049052;28;9200;-69
2024/03/09 06:58:20;;;;;;;;;;;;;;;23.05;45.07;92781.88;5032383;28;8706;-63
2024/03/09 07:00:46;;;;;;;;;;;;;;;23.07;44.51;92802.00;5049925;28;8704;-64
2024/03/09 07:03:12;;;;;;;;;;;;;;;23.08;44.94;92797.25;5031051;28;8708;-63
2024/03/09 07:05:38;;;;;;;;;;;;;;;23.09;44.79;92790.50;5066099;28;8768;-64
2024/03/09 07:08:09;;;;;;;;;;;;;;;23.10;44.84;92792.69;5083569;28;8722;-63
2024/03/09 07:10:36;;;;;;;;;;;;;;;23.09;44.58;92799.47;5095318;28;9185;-63
2024/03/09 07:13:02;;;;;;;;;;;;;;;23.09;44.09;92793.25;5083828;28;7340;-62
2024/03/09 07:15:30;;;;;;;;;;;;;;;23.06;42.25;92800.53;5080553;28;8949;-64
2024/03/09 07:17:56;;;;;;;;;;;;;;;23.05;43.20;92810.00;5088661;28;7103;-64
2024/03/09 07:20:27;;;;;;;;;;;;;;;23.05;43.78;92809.28;5098585;28;9042;-63
2024/03/09 07:22:54;;;;;;;;;;;;;;;23.10;43.62;92802.94;5085774;28;7523;-65
2024/03/09 07:25:25;;;;;;;;;;;;;;;23.07;43.98;92801.25;5084805;28;8913;-65
2024/03/09 07:27:52;;;;;;;;;;;;;;;23.09;43.91;92802.22;5088046;28;9254;-64
2024/03/09 07:30:18;;;;;;;;;;;;;;;23.15;44.08;92794.59;5083716;28;8762;-64
2024/03/09 07:32:53;;;;;;;;;;;;;;;23.14;44.10;92820.53;5089981;28;7350;-64
2024/03/09 07:35:27;;;;;;;;;;;;;;;23.13;43.76;92786.16;5076024;28;9474;-66
2024/03/09 07:37:55;;;;;;;;;;;;;;;23.20;43.92;92793.75;5100948;28;7069;-63
2024/03/09 07:40:24;;;;;;;;;;;;;;;23.24;43.19;92802.38;5080785;28;9057;-65
2024/03/09 07:42:53;;;;;;;;;;;;;;;23.30;43.78;92813.19;5091174;28;7921;-62
2024/03/09 07:45:26;;;;;;;;;;;;;;;23.32;43.70;92794.19;5098417;28;9459;-64
2024/03/09 07:47:54;;;;;;;;;;;;;;;23.43;43.53;92810.44;5080102;28;9065;-65
2024/03/09 07:50:22;;;;;;;;;;;;;;;23.48;44.02;92800.59;5101787;28;7182;-66
2024/03/09 07:52:55;;;;;;;;;;;;;;;23.54;43.54;92788.22;5085354;28;8686;-65
2024/03/09 07:55:27;;;;;;;;;;;;;;;23.56;43.57;92788.44;5079207;28;9138;-65
2024/03/09 07:57:54;;;;;;;;;;;;;;;23.66;43.39;92799.69;5082935;28;9015;-64
2024/03/09 08:00:27;;;;;;;;;;;;;;;23.71;43.09;92794.03;5086994;28;9386;-64
2024/03/09 08:02:55;;;;;;;;;;;;;;;23.75;42.96;92780.72;5099052;28;7007;-64
2024/03/09 08:05:28;;;;;;;;;;;;;;;23.78;43.04;92767.94;5084290;28;7577;-63
2024/03/09 08:07:55;;;;;;;;;;;;;;;23.80;42.87;92773.63;5095905;28;7233;-63
2024/03/09 08:10:25;;;;;;;;;;;;;;;23.84;42.84;92765.78;5099990;28;8772;-63
2024/03/09 08:13:21;;;;;;;;;;;;;;;23.87;42.84;92770.94;5081299;28;7098;-65
2024/03/09 08:15:59;;;;;;;;;;;;;;;23.92;42.01;92777.56;5038149;28;9075;-64
2024/03/09 08:18:25;;;;;;;;;;;;;;;23.93;42.44;92762.56;5046799;28;7085;-65
2024/03/09 08:21:13;;;;;;;;;;;;;;;23.89;42.63;92762.16;5055724;28;9428;-63
2024/03/09 08:23:52;;;;;;;;;;;;;;;23.93;43.90;92768.03;5044658;28;8908;-63
2024/03/09 08:26:34;;;;;;;;;;;;;;;23.91;47.09;92770.59;5062551;28;9128;-61
2024/03/09 08:29:00;;;;;;;;;;;;;;;24.07;48.50;92769.47;5038180;28;9004;-61
2024/03/09 08:31:26;;;;;;;;;;;;;;;24.21;48.80;92776.31;5050414;28;9139;-62
2024/03/09 08:33:53;;;;;;;;;;;;;;;24.34;49.08;92765.22;5048104;28;9425;-62
2024/03/09 08:36:35;;;;;;;;;;;;;;;24.44;47.61;92765.47;5065252;28;7175;-64
2024/03/09 08:39:12;;;;;;;;;;;;;;;24.48;49.44;92769.34;5039583;28;7173;-63
2024/03/09 08:41:38;;;;;;;;;;;;;;;24.55;47.74;92760.41;5066082;28;7021;-62
2024/03/09 08:44:13;;;;;;;;;;;;;;;24.57;47.02;92741.34;5051429;28;8773;-62
2024/03/09 08:46:40;;;;;;;;;;;;;;;24.59;45.11;92738.78;5064760;28;9397;-62
2024/03/09 08:49:07;;;;;;;;;;;;;;;24.58;44.39;92726.31;5054784;28;8999;-62
2024/03/09 08:51:34;;;;;;;;;;;;;;;24.52;43.17;92725.00;5064549;28;9051;-64
2024/03/09 08:54:04;;;;;;;;;;;;;;;24.42;42.57;92730.28;5078645;28;8745;-64
2024/03/09 08:56:31;;;;;;;;;;;;;;;24.33;42.71;92733.53;5100641;28;9401;-64
2024/03/09 08:58:57;;;;;;;;;;;;;;;24.26;42.73;92728.00;5086250;28;8764;-64
2024/03/09 09:01:23;;;;;;;;;;;;;;;24.19;43.29;92728.69;5098504;28;8175;-64
2024/03/09 09:03:51;;;;;;;;;;;;;;;24.10;43.07;92718.94;5089737;28;9152;-64
2024/03/09 09:06:18;;;;;;;;;;;;;;;24.03;42.95;92716.13;5104376;28;9538;-64
2024/03/09 09:08:44;;;;;;;;;;;;;;;23.95;44.01;92722.28;5084703;28;9391;-65
2024/03/09 09:11:16;;;;;;;;;;;;;;;23.85;43.75;92701.38;5089792;28;8926;-65
2024/03/09 09:13:44;;;;;;;;;;;;;;;23.82;43.26;92697.69;5077155;28;9364;-64
2024/03/09 09:16:14;;;;;;;;;;;;;;;23.78;43.51;92696.56;5098895;28;9361;-62
2024/03/09 09:18:47;;;;;;;;;;;;;;;23.74;43.18;92696.91;5099665;28;8898;-62
2024/03/09 09:21:15;;;;;;;;;;;;;;;23.68;43.52;92704.56;5083433;28;9021;-62
2024/03/09 09:23:49;;;;;;;;;;;;;;;23.64;43.73;92698.66;5075585;28;9083;-63
2024/03/09 09:26:23;;;;;;;;;;;;;;;23.62;44.12;92697.75;5099067;28;8978;-61
2024/03/09 09:28:49;;;;;;;;;;;;;;;23.64;44.19;92706.16;5089700;28;9647;-62
2024/03/09 09:31:16;;;;;;;;;;;;;;;23.56;43.97;92699.88;5093470;28;6942;-63
2024/03/09 09:33:51;;;;;;;;;;;;;;;23.55;44.11;92698.41;5083460;28;8702;-61
2024/03/09 09:36:29;;;;;;;;;;;;;;;23.52;43.87;92692.00;5085763;28;9047;-67
2024/03/09 09:38:59;;;;;;;;;;;;;;;23.50;44.60;92691.78;5094210;28;9222;-61
2024/03/09 09:41:29;;;;;;;;;;;;;;;23.46;44.12;92666.72;5102744;28;9504;-65
2024/03/09 13:46:34;;;;;;;;;;;;;;;21.33;51.04;92462.41;5089035;28;6660;-56
2024/03/09 13:49:12;;;;;;;;;;;;;;;21.83;49.98;92471.56;5069808;28;7499;-56
2024/03/09 13:51:40;;;;;;;;;;;;;;;22.23;48.81;92448.19;5069343;28;7064;-54
2024/03/09 13:54:36;;;;;;;;;;;;;;;22.70;47.78;92456.28;5069328;28;8576;-55
2024/03/09 13:57:05;;;;;;;;;;;;;;;23.00;46.83;92459.19;5005953;28;7128;-55
2024/03/09 13:59:36;;;;;;;;;;;;;;;23.27;46.36;92440.50;4959239;28;7618;-55
2024/03/09 14:02:13;;;;;;;;;;;;;;;23.50;45.54;92444.09;4988528;28;7240;-55
2024/03/09 14:04:40;;;;;;;;;;;;;;;23.69;45.67;92436.28;5006512;28;7388;-55
2024/03/09 14:07:10;;;;;;;;;;;;;;;23.82;44.71;92434.13;4996503;28;9428;-55
2024/03/09 14:09:49;;;;;;;;;;;;;;;23.92;44.48;92442.59;4994179;28;7121;-55
2024/03/09 14:12:21;;;;;;;;;;;;;;;24.01;44.19;92446.81;5007141;28;9346;-55
2024/03/09 14:14:55;;;;;;;;;;;;;;;24.09;43.96;92447.56;5005449;28;9360;-57
2024/03/09 14:17:24;;;;;;;;;;;;;;;24.11;43.34;92434.78;4992745;28;7280;-58
2024/03/09 14:19:54;;;;;;;;;;;;;;;24.20;42.92;92436.25;4994283;28;9075;-57
2024/03/09 14:22:39;;;;;;;;;;;;;;;24.16;42.64;92428.38;5003105;28;7259;-57
2024/03/09 14:25:10;;;;;;;;;;;;;;;24.26;43.31;92445.78;4992899;28;7107;-57
2024/03/09 14:27:39;;;;;;;;;;;;;;;24.26;43.30;92425.81;4981113;28;7355;-57
2024/03/09 14:30:09;;;;;;;;;;;;;;;24.35;43.25;92437.00;4990039;28;9200;-57
2024/03/09 14:32:39;;;;;;;;;;;;;;;24.35;42.84;92428.75;4992702;28;7053;-58
2024/03/09 14:35:16;;;;;;;;;;;;;;;24.33;42.34;92420.31;5016652;28;7032;-58
2024/03/09 14:37:56;;;;;;;;;;;;;;;24.41;42.31;92426.53;5046116;28;8969;-58
2024/03/09 14:40:24;;;;;;;;;;;;;;;24.41;42.14;92414.81;5045257;28;9074;-58
2024/03/09 14:42:52;;;;;;;;;;;;;;;24.40;43.08;92400.34;5028560;28;9375;-57
2024/03/09 14:45:25;;;;;;;;;;;;;;;24.41;42.94;92396.31;5042072;28;7036;-57
2024/03/09 14:47:59;;;;;;;;;;;;;;;24.40;42.87;92407.88;5047458;28;7597;-57
2024/03/09 14:50:28;;;;;;;;;;;;;;;24.42;42.29;92411.53;5044437;28;7023;-57
2024/03/09 14:52:55;;;;;;;;;;;;;;;24.41;42.22;92401.06;5045485;28;7060;-58
2024/03/09 14:55:27;;;;;;;;;;;;;;;24.43;42.12;92412.25;5060027;28;7018;-58
2024/03/09 14:57:57;;;;;;;;;;;;;;;24.39;42.25;92401.63;5028873;28;9348;-57
2024/03/09 15:03:28;;;;;;;;;;;;;;;24.32;42.17;92385.88;5027487;28;7347;-62
2024/03/09 15:06:00;;;;;;;;;;;;;;;24.35;42.14;92395.78;5031840;28;7345;-61
2024/03/09 15:08:26;;;;;;;;;;;;;;;24.35;42.15;92406.03;5029770;28;9119;-59
2024/03/09 15:10:57;;;;;;;;;;;;;;;24.27;42.67;92388.81;5028399;28;8833;-60
2024/03/09 15:13:26;;;;;;;;;;;;;;;24.18;42.18;92362.63;5031390;28;9045;-62
2024/03/09 15:15:59;;;;;;;;;;;;;;;24.36;42.79;92397.22;5014539;28;7203;-63
2024/03/09 15:18:26;;;;;;;;;;;;;;;24.33;42.40;92384.59;5033306;28;7168;-59
2024/03/09 15:20:57;;;;;;;;;;;;;;;24.35;42.54;92392.28;5026574;28;7025;-59
2024/03/09 15:23:25;;;;;;;;;;;;;;;24.29;42.58;92381.50;5033194;28;7034;-59
2024/03/09 15:26:02;;;;;;;;;;;;;;;24.32;42.29;92372.13;5034126;28;7028;-62
2024/03/09 15:28:36;;;;;;;;;;;;;;;24.36;42.52;92380.75;5034347;28;7298;-61
2024/03/09 15:31:06;;;;;;;;;;;;;;;24.33;41.48;92362.63;5014407;28;9782;-62
2024/03/09 15:33:41;;;;;;;;;;;;;;;24.33;42.07;92376.38;5025026;28;9085;-61
2024/03/09 15:36:10;;;;;;;;;;;;;;;24.34;41.97;92372.31;5035664;28;7311;-62
2024/03/09 15:38:47;;;;;;;;;;;;;;;24.31;42.44;92367.94;5018405;28;9038;-61
2024/03/09 15:41:28;;;;;;;;;;;;;;;24.31;42.28;92378.94;5036012;28;7129;-62
2024/03/09 15:44:08;;;;;;;;;;;;;;;24.30;42.48;92382.94;5034528;28;7025;-62
2024/03/09 15:46:35;;;;;;;;;;;;;;;24.30;42.10;92380.19;5040872;28;7045;-61
2024/03/09 15:49:05;;;;;;;;;;;;;;;24.28;41.66;92368.28;5035990;28;7257;-61
2024/03/09 15:51:55;;;;;;;;;;;;;;;24.30;41.83;92379.47;5016229;28;7028;-62
2024/03/09 15:54:57;;;;;;;;;;;;;;;24.27;42.27;92383.31;5032666;28;7933;-61
2024/03/09 15:57:28;;;;;;;;;;;;;;;24.27;41.75;92377.84;4936214;29;8811;-62
2024/03/09 16:00:30;;;;;;;;;;;;;;;24.23;41.71;92377.47;4949541;28;9536;-62
2024/03/09 16:02:57;;;;;;;;;;;;;;;24.27;42.10;92389.53;4917286;29;7387;-61
2024/03/09 16:05:36;;;;;;;;;;;;;;;24.26;42.12;92379.84;4916904;29;7654;-61
2024/03/09 16:08:04;;;;;;;;;;;;;;;24.25;41.80;92375.63;4912658;29;7046;-61
2024/03/09 16:10:41;;;;;;;;;;;;;;;24.19;41.60;92366.84;4899940;29;7052;-62
2024/03/09 16:13:07;;;;;;;;;;;;;;;24.21;41.78;92375.25;4917284;29;8805;-61
2024/03/09 16:15:40;;;;;;;;;;;;;;;24.22;41.84;92384.97;4916327;29;7032;-61
2024/03/09 16:18:07;;;;;;;;;;;;;;;24.22;42.37;92382.22;4914132;29;8973;-61
2024/03/09 16:20:33;;;;;;;;;;;;;;;;;;4914959;29;7048;-61
2024/03/09 16:23:05;;;;;;;;;;;;;;;24.23;41.53;92385.72;4900849;29;8255;-61
2024/03/09 16:25:39;;;;;;;;;;;;;;;24.18;41.99;92379.13;4911859;29;7127;-61
2024/03/09 16:28:31;;;;;;;;;;;;;;;24.22;41.62;92382.22;4912931;29;7321;-61
2024/03/09 16:30:59;;;;;;;;;;;;;;;24.17;42.24;92380.38;4916440;29;7689;-61
2024/03/09 16:33:54;;;;;;;;;;;;;;;24.23;41.92;92389.16;4904502;28;9532;-61
2024/03/09 16:36:22;;;;;;;;;;;;;;;24.22;42.05;92389.72;4934400;29;9054;-54
2024/03/09 16:38:48;;;;;;;;;;;;;;;24.22;41.54;92379.47;4919640;29;7707;-54
2024/03/09 16:41:22;;;;;;;;;;;;;;;24.14;41.74;92365.00;4935169;29;6868;-55
2024/03/09 16:43:49;;;;;;;;;;;;;;;24.20;41.86;92379.31;4935670;29;9061;-54
2024/03/09 16:46:17;;;;;;;;;;;;;;;24.20;41.61;92379.31;4934968;29;8635;-54
2024/03/09 16:48:43;;;;;;;;;;;;;;;24.15;41.87;92363.72;4951150;28;8251;-54
2024/03/09 16:51:11;;;;;;;;;;;;;;;24.21;42.00;92369.75;4934913;29;6956;-54
2024/03/09 16:53:38;;;;;;;;;;;;;;;24.19;41.85;92368.84;4931985;29;7050;-55
2024/03/09 16:56:36;;;;;;;;;;;;;;;24.20;41.86;92378.56;4933683;29;8984;-54
2024/03/09 16:59:17;;;;;;;;;;;;;;;24.15;41.61;92365.72;4881587;29;8879;-55
2024/03/09 17:01:55;;;;;;;;;;;;;;;24.19;42.44;92364.09;4892024;29;7062;-55
2024/03/09 17:04:22;;;;;;;;;;;;;;;24.20;42.01;92364.81;4888794;29;7416;-52
2024/03/09 17:07:01;;;;;;;;;;;;;;;24.17;41.84;92363.91;4894329;29;9105;-54
2024/03/09 17:09:30;;;;;;;;;;;;;;;24.17;42.05;92357.66;4879980;29;7244;-54
2024/03/09 17:12:02;;;;;;;;;;;;;;;24.18;42.27;92359.88;4875284;28;7067;-54
2024/03/09 17:14:49;;;;;;;;;;;;;;;24.21;41.42;92355.28;4937875;28;9292;-55
2024/03/09 17:17:30;;;;;;;;;;;;;;;24.19;41.90;92355.84;4972302;28;7045;-54
2024/03/09 17:20:07;;;;;;;;;;;;;;;24.20;41.50;92351.09;4954090;28;7071;-54
2024/03/09 17:22:33;;;;;;;;;;;;;;;24.19;41.61;92358.59;4937863;28;9439;-54
2024/03/09 17:25:05;;;;;;;;;;;;;;;24.19;41.49;92366.84;4953727;28;6999;-54
2024/03/09 17:27:33;;;;;;;;;;;;;;;24.17;41.97;92363.91;4938352;28;6874;-54
2024/03/09 17:30:16;;;;;;;;;;;;;;;24.18;42.13;92365.38;4969981;28;7050;-54
2024/03/09 17:32:47;;;;;;;;;;;;;;;24.17;41.46;92355.66;4938256;28;9483;-55